VAM | Vabird-VBD

Virtual Vabird! Aerolínea Virtual de habla hispana, desde 2011




 INFORMACIÓN METAR y TAF
METAR FOR LEBZ
ADDS - METARS form results

(1354 UTC 12 April 2021)
Data provider http://aviationweather.gov/metar/data/
 
METAR text: LEBZ 121330Z 09003KT CAVOK 21/09 Q1021
Conditions at: LEBZ (TALAVERA AB/BADA, ES) observed 1330 UTC 12 April 2021
Temperature: 21.0°C (70°F)
Dewpoint: 9.0°C (48°F) [RH = 46%]
Pressure (altimeter): 30.15 inches Hg (1021.0 mb)
Winds: from the E (90 degrees) at 3 MPH (3 knots; 1.5 m/s)
Visibility: 6 or more miles (10+ km)
Ceiling: ceiling and visibility are OK
Clouds: unknown
Weather: no significant weather observed at this time

METAR text: LEBZ 121300Z 11003KT CAVOK 21/10 Q1021
Conditions at: LEBZ (TALAVERA AB/BADA, ES) observed 1300 UTC 12 April 2021
Temperature: 21.0°C (70°F)
Dewpoint: 10.0°C (50°F) [RH = 49%]
Pressure (altimeter): 30.15 inches Hg (1021.0 mb)
Winds: from the ESE (110 degrees) at 3 MPH (3 knots; 1.5 m/s)
Visibility: 6 or more miles (10+ km)
Ceiling: ceiling and visibility are OK
Clouds: unknown
Weather: no significant weather observed at this time

Forecast for: LEBZ (TALAVERA AB/BADA, ES)
Text: TAF LEBZ 121100Z 1212/1312 08005KT CAVOK TX21/1215Z TN09/1306Z
Forecast period: 1200 UTC 12 April 2021 to 1200 UTC 13 April 2021
Forecast type: FROM: standard forecast or significant change
Winds: from the E (80 degrees) at 6 MPH (5 knots; 2.6 m/s)
Visibility: 6 or more miles (10+ km)
Ceiling: unknown
Clouds: missing
Weather: no significant weather forecast for this period

 MAPA DE AEROPUERTO

 INFORMACIÓN DE PISTA